Time;durP1;ratioP1;P1;durP2;ratioP2;P2;SDS_P1;SDS_P2;PMS_P1;PMS_P2;Temp;Humidity;BMP_temperature;BMP_pressure;BME280_temperature;BME280_humidity;BME280_pressure;Samples;Min_cycle;Max_cycle;Signal;HPM_P1;HPM_P2
2022/11/16 00:01:11;;;;;;;63.55;41.92;;;;;;;;;;5053488;28;20025;-80
2022/11/16 00:03:37;;;;;;;58.53;41.55;;;;;;;;;;5053726;28;20043;-80
2022/11/16 00:06:04;;;;;;;57.05;38.20;;;;;;;;;;5053594;28;20412;-77
2022/11/16 00:08:31;;;;;;;58.13;39.33;;;;;;;;;;5053420;28;20032;-77
2022/11/16 00:11:03;;;;;;;56.47;38.30;;;;;;;;;;5053115;28;20028;-79
2022/11/16 00:13:31;;;;;;;61.13;39.42;;;;;;;;;;5035877;28;20591;-78
2022/11/16 00:15:57;;;;;;;51.35;37.00;;;;;;;;;;5053313;28;20487;-81
2022/11/16 00:18:23;;;;;;;51.80;37.83;;;;;;;;;;5052449;28;20100;-80
2022/11/16 00:20:50;;;;;;;65.90;41.47;;;;;;;;;;5053318;28;20044;-79
2022/11/16 00:23:16;;;;;;;63.35;43.17;;;;;;;;;;5035358;28;20076;-78
2022/11/16 00:25:42;;;;;;;72.68;46.45;;;;;;;;;;5053256;28;20033;-77
2022/11/16 00:28:08;;;;;;;67.40;45.20;;;;;;;;;;5053160;28;20032;-79
2022/11/16 00:30:35;;;;;;;61.28;43.95;;;;;;;;;;5053264;28;20021;-80
2022/11/16 00:33:01;;;;;;;59.35;41.42;;;;;;;;;;5053252;28;20025;-80
2022/11/16 00:35:27;;;;;;;63.38;42.95;;;;;;;;;;5053234;28;20029;-77
2022/11/16 00:37:53;;;;;;;61.92;41.38;;;;;;;;;;5053127;28;20025;-77
2022/11/16 00:40:19;;;;;;;59.25;40.60;;;;;;;;;;5035298;28;20036;-78
2022/11/16 00:42:46;;;;;;;56.00;38.92;;;;;;;;;;5053248;28;20051;-80
2022/11/16 00:45:12;;;;;;;51.03;34.85;;;;;;;;;;5035200;28;20017;-81
2022/11/16 00:47:38;;;;;;;53.35;35.88;;;;;;;;;;5052957;28;20025;-78
2022/11/16 00:50:06;;;;;;;51.28;35.25;;;;;;;;;;5053013;28;20036;-79
2022/11/16 00:52:32;;;;;;;54.17;36.83;;;;;;;;;;5035397;28;20388;-81
2022/11/16 00:54:58;;;;;;;49.92;34.63;;;;;;;;;;5053169;28;20470;-79
2022/11/16 00:57:24;;;;;;;51.53;35.28;;;;;;;;;;5052711;28;20033;-79
2022/11/16 00:59:50;;;;;;;57.97;38.38;;;;;;;;;;5041853;28;20124;-79
2022/11/16 01:02:16;;;;;;;54.05;36.65;;;;;;;;;;5032923;28;20018;-81
2022/11/16 01:04:42;;;;;;;52.95;35.60;;;;;;;;;;5033114;28;20080;-77
2022/11/16 01:07:08;;;;;;;49.75;33.58;;;;;;;;;;5032781;28;20037;-79
2022/11/16 01:09:34;;;;;;;50.10;36.20;;;;;;;;;;5033097;28;20393;-80
2022/11/16 01:12:09;;;;;;;49.15;35.28;;;;;;;;;;5032952;28;20022;-80
2022/11/16 01:14:54;;;;;;;50.03;33.78;;;;;;;;;;5015181;28;20494;-80
2022/11/16 01:17:20;;;;;;;49.42;33.65;;;;;;;;;;5015157;28;20061;-80
2022/11/16 01:19:46;;;;;;;50.08;33.92;;;;;;;;;;5032937;28;20037;-78
2022/11/16 01:22:12;;;;;;;53.03;34.97;;;;;;;;;;5032843;28;20026;-80
2022/11/16 01:24:39;;;;;;;50.60;34.88;;;;;;;;;;5032886;28;20021;-78
2022/11/16 01:27:05;;;;;;;51.13;35.13;;;;;;;;;;5014965;28;20488;-79
2022/11/16 01:29:31;;;;;;;53.47;33.22;;;;;;;;;;5034647;28;20029;-78
2022/11/16 01:31:58;;;;;;;46.72;33.08;;;;;;;;;;5036421;28;20029;-80
2022/11/16 01:34:24;;;;;;;55.38;35.25;;;;;;;;;;5036684;28;20053;-76
2022/11/16 01:36:50;;;;;;;52.08;33.95;;;;;;;;;;5036373;28;20017;-81
2022/11/16 01:39:16;;;;;;;46.60;31.40;;;;;;;;;;5036283;28;20428;-77
2022/11/16 01:41:43;;;;;;;47.78;32.42;;;;;;;;;;5035858;28;20428;-80
2022/11/16 01:44:28;;;;;;;46.90;32.03;;;;;;;;;;5035386;28;20018;-79
2022/11/16 01:46:54;;;;;;;48.30;32.58;;;;;;;;;;5034223;28;20021;-78
2022/11/16 01:49:21;;;;;;;47.22;33.33;;;;;;;;;;5035376;28;20025;-78
2022/11/16 01:51:50;;;;;;;47.67;31.48;;;;;;;;;;5035482;28;20022;-77
2022/11/16 01:54:17;;;;;;;51.40;33.22;;;;;;;;;;5035358;28;20067;-78
2022/11/16 01:56:44;;;;;;;43.17;30.52;;;;;;;;;;5035409;28;20026;-80
2022/11/16 01:59:11;;;;;;;48.83;33.50;;;;;;;;;;5017366;28;20046;-79
2022/11/16 02:01:38;;;;;;;49.00;33.72;;;;;;;;;;5017600;28;20369;-80
2022/11/16 02:04:04;;;;;;;47.78;33.40;;;;;;;;;;5032541;28;20025;-76
2022/11/16 02:06:32;;;;;;;50.53;34.60;;;;;;;;;;5035312;28;20468;-79
2022/11/16 02:11:57;;;;;;;44.42;33.28;;;;;;;;;;5033100;28;20025;-77
2022/11/16 02:14:23;;;;;;;;;;;;;;;;;;5035586;28;20021;-77
2022/11/16 02:17:07;;;;;;;50.22;33.55;;;;;;;;;;5035658;28;19912;-81
2022/11/16 02:19:33;;;;;;;50.33;34.87;;;;;;;;;;5035576;28;20128;-79
2022/11/16 02:22:19;;;;;;;46.78;33.92;;;;;;;;;;5035532;28;20123;-79
2022/11/16 02:24:59;;;;;;;51.20;34.28;;;;;;;;;;5022064;28;20034;-79
2022/11/16 02:27:34;;;;;;;50.45;33.13;;;;;;;;;;5035315;28;20491;-78
2022/11/16 02:30:01;;;;;;;65.30;45.75;;;;;;;;;;5035344;28;20022;-78
2022/11/16 02:32:36;;;;;;;119.78;82.80;;;;;;;;;;5035282;28;20029;-77
2022/11/16 02:35:06;;;;;;;61.33;40.72;;;;;;;;;;5035384;28;20033;-79
2022/11/16 02:37:35;;;;;;;55.22;37.38;;;;;;;;;;5035529;28;20033;-78
2022/11/16 02:40:04;;;;;;;54.85;36.70;;;;;;;;;;5034525;28;20092;-80
2022/11/16 02:42:33;;;;;;;50.70;33.80;;;;;;;;;;5034981;28;20029;-80
2022/11/16 02:45:00;;;;;;;50.42;35.33;;;;;;;;;;5035186;28;20029;-76
2022/11/16 02:47:29;;;;;;;49.38;34.70;;;;;;;;;;5034996;28;20036;-80
2022/11/16 02:49:58;;;;;;;49.25;31.45;;;;;;;;;;5017099;28;20029;-77
2022/11/16 02:52:25;;;;;;;55.58;34.50;;;;;;;;;;5035039;28;20025;-77
2022/11/16 02:54:51;;;;;;;52.53;33.92;;;;;;;;;;5035002;28;20084;-78
2022/11/16 02:57:21;;;;;;;50.35;34.45;;;;;;;;;;5034835;28;20032;-80
2022/11/16 02:59:50;;;;;;;51.05;33.35;;;;;;;;;;5045268;28;20098;-81
2022/11/16 03:02:34;;;;;;;46.72;32.28;;;;;;;;;;5054669;28;20025;-77
2022/11/16 03:05:09;;;;;;;53.33;34.15;;;;;;;;;;5054751;28;20400;-79
2022/11/16 03:07:53;;;;;;;61.58;38.05;;;;;;;;;;5054517;28;20055;-80
2022/11/16 03:13:06;;;;;;;48.92;34.72;;;;;;;;;;5054843;28;20032;-78
2022/11/16 03:15:34;;;;;;;50.55;34.83;;;;;;;;;;5054574;28;20021;-81
2022/11/16 03:18:00;;;;;;;49.50;33.67;;;;;;;;;;5054309;28;20047;-80
2022/11/16 03:20:27;;;;;;;51.85;34.85;;;;;;;;;;5054429;28;20052;-80
2022/11/16 03:22:58;;;;;;;57.67;38.45;;;;;;;;;;5036509;28;20120;-80
2022/11/16 03:25:26;;;;;;;62.08;43.20;;;;;;;;;;5054270;28;20120;-79
2022/11/16 03:27:54;;;;;;;63.47;43.67;;;;;;;;;;5036235;28;20487;-77
2022/11/16 03:30:21;;;;;;;54.83;37.15;;;;;;;;;;5054182;28;20051;-81
2022/11/16 03:32:54;;;;;;;57.15;40.03;;;;;;;;;;5036373;28;20059;-80
2022/11/16 03:35:41;;;;;;;53.88;37.70;;;;;;;;;;5054083;28;20027;-79
2022/11/16 03:38:08;;;;;;;57.58;39.17;;;;;;;;;;5053876;28;20025;-77
2022/11/16 03:40:35;;;;;;;56.83;39.85;;;;;;;;;;5054098;28;20028;-79
2022/11/16 03:43:02;;;;;;;59.60;40.00;;;;;;;;;;5053923;28;20025;-80
2022/11/16 03:45:29;;;;;;;60.05;38.67;;;;;;;;;;5054004;28;20053;-76
2022/11/16 03:47:55;;;;;;;57.00;39.08;;;;;;;;;;5053693;28;20021;-80
2022/11/16 03:50:21;;;;;;;58.00;38.00;;;;;;;;;;5053820;28;20029;-81
2022/11/16 03:52:47;;;;;;;60.00;39.08;;;;;;;;;;5053657;28;20029;-79
2022/11/16 03:55:13;;;;;;;63.20;41.88;;;;;;;;;;5053893;28;20507;-78
2022/11/16 03:57:39;;;;;;;61.53;42.08;;;;;;;;;;5053822;28;20056;-79
2022/11/16 04:00:06;;;;;;;57.95;39.53;;;;;;;;;;5053392;28;20123;-81
2022/11/16 04:02:32;;;;;;;59.78;40.67;;;;;;;;;;5036083;28;20388;-78
2022/11/16 04:24:23;;;;;;;54.22;37.45;;;;;;;;;;5033734;28;20599;-78
2022/11/16 04:29:36;;;;;;;64.88;41.83;;;;;;;;;;5033655;28;20107;-78
2022/11/16 04:37:48;;;;;;;65.65;45.40;;;;;;;;;;5051765;28;20527;-79
2022/11/16 04:40:33;;;;;;;60.00;40.90;;;;;;;;;;5035345;28;20029;-79
2022/11/16 04:43:00;;;;;;;56.30;38.15;;;;;;;;;;5053124;28;20037;-79
2022/11/16 04:48:18;;;;;;;59.35;40.05;;;;;;;;;;5049919;28;20360;-80
2022/11/16 04:50:44;;;;;;;98.32;66.65;;;;;;;;;;5052166;28;20029;-78
2022/11/16 04:53:10;;;;;;;68.32;47.45;;;;;;;;;;5049150;28;20025;-80
2022/11/16 04:55:36;;;;;;;67.18;46.83;;;;;;;;;;5052977;28;20079;-81
2022/11/16 04:58:02;;;;;;;62.80;42.63;;;;;;;;;;5053038;28;20033;-81
2022/11/16 05:00:29;;;;;;;56.50;39.42;;;;;;;;;;5052503;28;20044;-80
2022/11/16 05:02:55;;;;;;;52.75;38.88;;;;;;;;;;5053082;28;20024;-79
2022/11/16 05:05:21;;;;;;;60.05;39.28;;;;;;;;;;5055928;28;20025;-81
2022/11/16 05:07:47;;;;;;;57.78;40.42;;;;;;;;;;5056824;28;20052;-78
2022/11/16 05:10:13;;;;;;;60.70;40.75;;;;;;;;;;5056761;28;20025;-79
2022/11/16 05:12:40;;;;;;;56.63;39.63;;;;;;;;;;5056843;28;20025;-79
2022/11/16 05:15:07;;;;;;;64.35;41.00;;;;;;;;;;5056080;28;20063;-80
2022/11/16 05:17:33;;;;;;;61.75;41.35;;;;;;;;;;5056084;28;20029;-79
2022/11/16 05:22:44;;;;;;;58.92;39.25;;;;;;;;;;5056541;28;20115;-81
2022/11/16 05:25:10;;;;;;;62.40;40.22;;;;;;;;;;5056147;28;20028;-82
2022/11/16 05:27:36;;;;;;;62.35;42.92;;;;;;;;;;5056105;28;20463;-81
2022/11/16 05:30:04;;;;;;;60.85;40.90;;;;;;;;;;5056169;28;20061;-78
2022/11/16 05:32:30;;;;;;;54.63;38.90;;;;;;;;;;5054679;28;20027;-81
2022/11/16 05:34:56;;;;;;;55.00;37.90;;;;;;;;;;5036930;28;20033;-82
2022/11/16 05:37:25;;;;;;;57.67;39.05;;;;;;;;;;5054509;28;20021;-80
2022/11/16 05:39:51;;;;;;;55.78;40.00;;;;;;;;;;5054498;28;20017;-81
2022/11/16 05:42:17;;;;;;;57.65;39.63;;;;;;;;;;5054808;28;20388;-80
2022/11/16 05:44:43;;;;;;;61.85;39.78;;;;;;;;;;5055133;28;20051;-81
2022/11/16 05:47:10;;;;;;;63.03;39.97;;;;;;;;;;5036410;28;20091;-81
2022/11/16 05:49:36;;;;;;;58.65;39.97;;;;;;;;;;5053341;28;20036;-79
2022/11/16 05:52:02;;;;;;;62.17;44.08;;;;;;;;;;5053085;28;20039;-76
2022/11/16 05:54:30;;;;;;;66.72;44.42;;;;;;;;;;5052888;28;20021;-80
2022/11/16 05:56:56;;;;;;;55.80;39.80;;;;;;;;;;5052739;28;20126;-80
2022/11/16 05:59:28;;;;;;;60.00;41.40;;;;;;;;;;5052527;28;20518;-78
2022/11/16 06:01:54;;;;;;;56.25;39.83;;;;;;;;;;5032784;28;20032;-79
2022/11/16 06:04:20;;;;;;;53.45;39.38;;;;;;;;;;5036575;28;20083;-78
2022/11/16 06:06:48;;;;;;;58.53;39.67;;;;;;;;;;5053872;28;20033;-78
2022/11/16 06:09:14;;;;;;;59.17;41.20;;;;;;;;;;5037296;28;20029;-77
2022/11/16 06:11:40;;;;;;;56.78;40.67;;;;;;;;;;5037417;28;20028;-78
2022/11/16 06:14:11;;;;;;;57.88;39.80;;;;;;;;;;5036406;28;20021;-78
2022/11/16 06:16:37;;;;;;;55.60;39.60;;;;;;;;;;5073356;28;20024;-76
2022/11/16 06:19:03;;;;;;;60.17;42.63;;;;;;;;;;5074700;28;20048;-78
2022/11/16 06:21:29;;;;;;;102.95;67.93;;;;;;;;;;5054543;28;20090;-78
2022/11/16 06:23:56;;;;;;;89.78;57.88;;;;;;;;;;5036368;28;20442;-76
2022/11/16 06:26:22;;;;;;;109.50;71.82;;;;;;;;;;5053050;28;20021;-78
2022/11/16 06:28:48;;;;;;;76.85;50.78;;;;;;;;;;5053936;28;20108;-78
2022/11/16 06:31:14;;;;;;;69.68;47.35;;;;;;;;;;5054989;28;20040;-80
2022/11/16 06:33:40;;;;;;;71.65;48.97;;;;;;;;;;5044893;28;20031;-80
2022/11/16 06:36:06;;;;;;;54.85;39.83;;;;;;;;;;5044566;28;20033;-82
2022/11/16 06:38:32;;;;;;;56.78;38.47;;;;;;;;;;5063081;28;20408;-83
2022/11/16 06:40:58;;;;;;;57.63;40.30;;;;;;;;;;5050693;28;20051;-82
2022/11/16 06:43:25;;;;;;;61.03;43.30;;;;;;;;;;5051784;28;20040;-84
2022/11/16 06:45:56;;;;;;;59.10;39.03;;;;;;;;;;5035558;28;20111;-85
2022/11/16 06:48:22;;;;;;;55.60;39.75;;;;;;;;;;5026466;28;20108;-84
2022/11/16 06:50:49;;;;;;;55.10;38.90;;;;;;;;;;5050455;28;20035;-83
2022/11/16 06:53:15;;;;;;;59.60;40.08;;;;;;;;;;5051651;28;20031;-86
2022/11/16 06:55:44;;;;;;;59.10;41.88;;;;;;;;;;5033932;28;20068;-86
2022/11/16 06:58:14;;;;;;;65.93;40.90;;;;;;;;;;5030352;28;20393;-84
2022/11/16 07:00:40;;;;;;;57.45;38.95;;;;;;;;;;5023615;28;20072;-90
2022/11/16 07:03:15;;;;;;;67.75;44.10;;;;;;;;;;5017715;28;20024;-88
2022/11/16 07:05:44;;;;;;;58.75;40.33;;;;;;;;;;5042881;28;20055;-87
2022/11/16 07:08:15;;;;;;;56.80;40.85;;;;;;;;;;5014940;28;20032;-89
2022/11/16 07:10:41;;;;;;;58.08;39.20;;;;;;;;;;5013698;28;20029;-83
2022/11/16 07:13:07;;;;;;;57.53;39.35;;;;;;;;;;5031851;28;20025;-83
2022/11/16 07:15:33;;;;;;;56.13;39.17;;;;;;;;;;5048245;28;20052;-82
2022/11/16 07:18:03;;;;;;;65.97;41.47;;;;;;;;;;5052089;28;20029;-84
2022/11/16 07:20:30;;;;;;;56.88;39.17;;;;;;;;;;5045201;28;20029;-85
2022/11/16 07:22:58;;;;;;;60.92;42.15;;;;;;;;;;5032926;28;20029;-83
2022/11/16 07:25:24;;;;;;;79.15;43.38;;;;;;;;;;5046380;28;20045;-84
2022/11/16 07:27:50;;;;;;;88.93;48.33;;;;;;;;;;5030542;28;20119;-82
2022/11/16 07:30:17;;;;;;;82.85;45.45;;;;;;;;;;5050053;28;20096;-83
2022/11/16 07:39:15;;;;;;;78.25;41.15;;;;;;;;;;5035251;28;20064;-82
2022/11/16 07:48:36;;;;;;;57.83;34.60;;;;;;;;;;5008895;28;20378;-84
2022/11/16 07:51:29;;;;;;;54.92;32.28;;;;;;;;;;5002812;28;20026;-86
2022/11/16 07:54:29;;;;;;;63.40;33.85;;;;;;;;;;5050046;28;20126;-84
2022/11/16 08:00:34;;;;;;;52.20;31.45;;;;;;;;;;5012911;28;20044;-84
2022/11/16 08:06:39;;;;;;;;;;;;;;;;;;;;;
2022/11/16 08:09:36;;;;;;;52.22;30.92;;;;;;;;;;4960718;28;20045;-82
2022/11/16 08:12:38;;;;;;;59.58;33.38;;;;;;;;;;4938803;28;20046;-81
2022/11/16 08:15:37;;;;;;;;;;;;;;;;;;;;;
2022/11/16 08:34:00;;;;;;;54.08;32.78;;;;;;;;;;5016888;28;20326;-89
2022/11/16 08:36:52;;;;;;;49.95;31.48;;;;;;;;;;5037343;28;20044;-87
2022/11/16 08:43:07;;;;;;;43.20;27.83;;;;;;;;;;5042348;28;20556;-87
2022/11/16 08:46:03;;;;;;;;;;;;;;;;;;;;;
2022/11/16 08:49:07;;;;;;;42.75;28.90;;;;;;;;;;5055166;28;20017;-87
2022/11/16 08:58:46;;;;;;;;;;;;;;;;;;;;;
2022/11/16 09:04:48;;;;;;;39.90;26.95;;;;;;;;;;5034838;28;20098;-86
2022/11/16 09:17:26;;;;;;;86.05;27.27;;;;;;;;;;5006821;28;20181;-91
2022/11/16 09:20:29;;;;;;;34.53;24.80;;;;;;;;;;5020217;28;20096;-85
2022/11/16 09:23:20;;;;;;;;;;;;;;;;;;;;;
2022/11/16 09:26:25;;;;;;;;;;;;;;;;;;;;;
2022/11/16 09:29:04;;;;;;;;;;;;;;;;;;;;;
2022/11/16 09:31:45;;;;;;;32.67;24.95;;;;;;;;;;5054759;28;19912;-83
2022/11/16 09:35:06;;;;;;;;;;;;;;;;;;;;;
2022/11/16 09:40:41;;;;;;;34.05;24.27;;;;;;;;;;5052734;28;20036;-82
2022/11/16 09:50:03;;;;;;;;;;;;;;;;;;;;;
2022/11/16 09:56:09;;;;;;;;;;;;;;;;;;;;;
2022/11/16 09:59:11;;;;;;;;;;;;;;;;;;;;;
2022/11/16 10:05:10;;;;;;;33.55;24.80;;;;;;;;;;5009572;28;20048;-82
2022/11/16 10:11:22;;;;;;;32.63;22.58;;;;;;;;;;5015437;28;20036;-83
2022/11/16 10:14:20;;;;;;;29.73;20.98;;;;;;;;;;4995063;28;20038;-82
2022/11/16 10:19:42;;;;;;;;;;;;;;;;;;5050677;28;20498;-86
2022/11/16 10:22:58;;;;;;;28.60;22.55;;;;;;;;;;5047766;28;19915;-85
2022/11/16 10:25:49;;;;;;;31.73;23.17;;;;;;;;;;5060473;28;20476;-82
2022/11/16 10:28:40;;;;;;;35.40;25.63;;;;;;;;;;5049033;28;20032;-82
2022/11/16 10:31:49;;;;;;;;;;;;;;;;;;;;;
2022/11/16 10:37:35;;;;;;;28.60;22.52;;;;;;;;;;5011175;28;20029;-83
2022/11/16 10:40:38;;;;;;;38.67;25.55;;;;;;;;;;5049255;28;20037;-83
2022/11/16 10:44:20;;;;;;;50.05;29.25;;;;;;;;;;5019721;28;20041;-81
2022/11/16 10:52:53;;;;;;;52.97;29.38;;;;;;;;;;5021707;28;20024;-80
2022/11/16 10:55:52;;;;;;;32.83;21.77;;;;;;;;;;4999231;28;20076;-83
2022/11/16 11:02:00;;;;;;;;;;;;;;;;;;;;;
2022/11/16 11:04:48;;;;;;;28.80;21.55;;;;;;;;;;5034539;28;20043;-81
2022/11/16 11:11:00;;;;;;;36.47;22.92;;;;;;;;;;5021064;28;20110;-84
2022/11/16 11:14:02;;;;;;;;;;;;;;;;;;;;;
2022/11/16 11:16:46;;;;;;;31.30;22.02;;;;;;;;;;4955019;28;20037;-89
2022/11/16 11:19:31;;;;;;;34.75;23.85;;;;;;;;;;4997369;28;20039;-84
2022/11/16 11:21:58;;;;;;;109.78;53.28;;;;;;;;;;5041467;28;20030;-87
2022/11/16 11:24:25;;;;;;;145.68;62.70;;;;;;;;;;5023226;28;20548;-82
2022/11/16 11:26:58;;;;;;;54.60;29.85;;;;;;;;;;5051451;28;20510;-91
2022/11/16 11:29:26;;;;;;;113.18;49.47;;;;;;;;;;5016741;28;20436;-84
2022/11/16 11:32:13;;;;;;;40.17;25.50;;;;;;;;;;5048430;28;20303;-84
2022/11/16 11:34:40;;;;;;;46.20;26.63;;;;;;;;;;5049245;28;20396;-82
2022/11/16 11:37:13;;;;;;;35.45;24.02;;;;;;;;;;5046180;28;20074;-82
2022/11/16 11:39:39;;;;;;;66.53;35.15;;;;;;;;;;5043891;28;20025;-84
2022/11/16 11:42:24;;;;;;;403.42;165.38;;;;;;;;;;5051493;28;20032;-88
2022/11/16 11:45:09;;;;;;;295.95;120.47;;;;;;;;;;5041162;28;20032;-85
2022/11/16 11:48:01;;;;;;;308.70;121.65;;;;;;;;;;5020502;28;20121;-89
2022/11/16 11:50:41;;;;;;;172.40;75.18;;;;;;;;;;5010410;28;20489;-87
2022/11/16 11:53:15;;;;;;;275.92;101.93;;;;;;;;;;4999807;28;20068;-87
2022/11/16 11:55:41;;;;;;;405.55;140.35;;;;;;;;;;5007410;28;20041;-84
2022/11/16 11:58:13;;;;;;;164.50;64.03;;;;;;;;;;5036526;28;20060;-84
2022/11/16 12:01:02;;;;;;;439.15;151.20;;;;;;;;;;5028664;28;20053;-83
2022/11/16 12:03:40;;;;;;;181.60;72.18;;;;;;;;;;5020798;28;20042;-85
2022/11/16 12:06:24;;;;;;;48.38;26.02;;;;;;;;;;5014854;28;20493;-85
2022/11/16 12:09:10;;;;;;;23.17;18.40;;;;;;;;;;5019592;28;20504;-83
2022/11/16 12:11:35;;;;;;;;;;;;;;;;;;5010060;28;20072;-85
2022/11/16 12:14:04;;;;;;;24.13;17.63;;;;;;;;;;5007774;28;19909;-85
2022/11/16 12:16:49;;;;;;;23.35;16.85;;;;;;;;;;5027413;28;20102;-84
2022/11/16 12:19:34;;;;;;;29.05;19.40;;;;;;;;;;5019971;28;20037;-84
2022/11/16 12:22:21;;;;;;;24.83;18.38;;;;;;;;;;5023803;28;20430;-84
2022/11/16 12:24:55;;;;;;;23.55;17.73;;;;;;;;;;5024272;28;20399;-84
2022/11/16 12:27:28;;;;;;;25.33;17.63;;;;;;;;;;5027024;28;20044;-87
2022/11/16 12:30:12;;;;;;;24.48;17.90;;;;;;;;;;5032736;28;20071;-86
2022/11/16 12:32:38;;;;;;;;;;;;;;;;;;5043299;28;20025;-89
2022/11/16 12:35:23;;;;;;;26.15;18.00;;;;;;;;;;5014196;28;20358;-87
2022/11/16 12:37:49;;;;;;;28.42;19.33;;;;;;;;;;5026073;28;20480;-83
2022/11/16 12:40:18;;;;;;;31.00;19.80;;;;;;;;;;5031931;28;20025;-84
2022/11/16 12:42:58;;;;;;;33.22;23.48;;;;;;;;;;5025796;28;20079;-85
2022/11/16 12:45:27;;;;;;;25.92;20.55;;;;;;;;;;5029512;28;20029;-83
2022/11/16 12:48:14;;;;;;;31.83;22.80;;;;;;;;;;5026537;28;20036;-87
2022/11/16 12:50:51;;;;;;;33.72;23.27;;;;;;;;;;5030566;28;20360;-80
2022/11/16 12:53:17;;;;;;;26.17;19.30;;;;;;;;;;5051316;28;20156;-89
2022/11/16 12:55:49;;;;;;;32.58;22.70;;;;;;;;;;5055684;28;20017;-87
2022/11/16 12:58:33;;;;;;;30.90;21.73;;;;;;;;;;5043736;28;20501;-91
2022/11/16 13:01:23;;;;;;;32.67;22.77;;;;;;;;;;5042988;28;20068;-83
2022/11/16 13:03:57;;;;;;;52.47;34.42;;;;;;;;;;5038204;28;20036;-84
2022/11/16 13:06:28;;;;;;;27.15;19.60;;;;;;;;;;5037478;28;20055;-81
2022/11/16 13:09:20;;;;;;;21.83;17.10;;;;;;;;;;5046756;28;20036;-80
2022/11/16 13:11:57;;;;;;;23.65;17.95;;;;;;;;;;5042401;28;20037;-81
2022/11/16 13:14:41;;;;;;;24.08;19.08;;;;;;;;;;5046180;28;20594;-80
2022/11/16 13:17:13;;;;;;;27.48;22.05;;;;;;;;;;5062721;28;20115;-77
2022/11/16 13:19:41;;;;;;;49.95;40.42;;;;;;;;;;5071581;28;20032;-80
2022/11/16 13:22:12;;;;;;;44.70;37.42;;;;;;;;;;5034554;28;20094;-85
2022/11/16 13:24:57;;;;;;;32.63;27.92;;;;;;;;;;5045277;28;20476;-79
2022/11/16 13:27:35;;;;;;;40.03;30.13;;;;;;;;;;5062708;28;20032;-82
2022/11/16 13:30:20;;;;;;;100.57;71.10;;;;;;;;;;5061354;28;20403;-83
2022/11/16 13:32:46;;;;;;;37.08;29.33;;;;;;;;;;5064227;28;20021;-81
2022/11/16 13:35:14;;;;;;;39.38;28.80;;;;;;;;;;5058676;28;20116;-81
2022/11/16 13:37:41;;;;;;;41.85;32.90;;;;;;;;;;5059396;28;20024;-83
2022/11/16 13:40:07;;;;;;;26.50;21.67;;;;;;;;;;5064191;28;20052;-81
2022/11/16 13:42:59;;;;;;;32.47;19.98;;;;;;;;;;5060108;28;20075;-86
2022/11/16 13:45:28;;;;;;;30.45;19.88;;;;;;;;;;5031991;28;20119;-82
2022/11/16 13:47:55;;;;;;;30.92;19.00;;;;;;;;;;5053470;28;20028;-83
2022/11/16 13:50:23;;;;;;;31.50;23.00;;;;;;;;;;5050243;28;20127;-83
2022/11/16 13:52:51;;;;;;;74.28;48.75;;;;;;;;;;5051918;28;20029;-86
2022/11/16 13:55:30;;;;;;;56.60;35.00;;;;;;;;;;5059578;28;20029;-81
2022/11/16 13:57:58;;;;;;;47.22;24.35;;;;;;;;;;5044670;28;20030;-81
2022/11/16 14:00:32;;;;;;;29.02;20.27;;;;;;;;;;5048289;28;20045;-81
2022/11/16 14:03:24;;;;;;;28.58;20.42;;;;;;;;;;5053560;28;20017;-82
2022/11/16 14:05:51;;;;;;;31.38;19.67;;;;;;;;;;5037945;28;20032;-83
2022/11/16 14:08:20;;;;;;;25.63;18.77;;;;;;;;;;5051064;28;20471;-83
2022/11/16 14:10:49;;;;;;;28.35;18.52;;;;;;;;;;5053568;28;20025;-82
2022/11/16 14:13:42;;;;;;;26.75;19.00;;;;;;;;;;5050230;28;20392;-86
2022/11/16 14:16:14;;;;;;;29.67;20.25;;;;;;;;;;5055776;28;20017;-80
2022/11/16 14:18:41;;;;;;;26.52;18.83;;;;;;;;;;5069254;28;20032;-80
2022/11/16 14:21:26;;;;;;;25.33;18.98;;;;;;;;;;5056185;28;20118;-80
2022/11/16 14:23:52;;;;;;;;;;;;;;;;;;5069520;28;20025;-86
2022/11/16 14:26:18;;;;;;;112.93;93.30;;;;;;;;;;5048425;28;20378;-83
2022/11/16 14:29:01;;;;;;;50.03;33.83;;;;;;;;;;5053671;28;20029;-81
2022/11/16 14:31:29;;;;;;;34.05;23.48;;;;;;;;;;5054248;28;20017;-81
2022/11/16 14:33:58;;;;;;;29.23;20.77;;;;;;;;;;5072541;28;20035;-82
2022/11/16 14:36:38;;;;;;;33.38;20.80;;;;;;;;;;5072766;28;20036;-81
2022/11/16 14:39:14;;;;;;;30.05;21.30;;;;;;;;;;5073846;28;20029;-82
2022/11/16 14:41:43;;;;;;;30.08;20.73;;;;;;;;;;5074240;28;20503;-79
2022/11/16 14:44:09;;;;;;;34.90;21.13;;;;;;;;;;5073375;28;20476;-80
2022/11/16 14:46:36;;;;;;;33.70;20.92;;;;;;;;;;5074307;28;20025;-81
2022/11/16 14:49:03;;;;;;;30.77;21.10;;;;;;;;;;5073693;28;20097;-81
2022/11/16 14:51:32;;;;;;;29.27;20.88;;;;;;;;;;5073333;28;20028;-81
2022/11/16 14:54:03;;;;;;;29.13;21.58;;;;;;;;;;5073615;28;20039;-80
2022/11/16 14:56:29;;;;;;;33.25;22.17;;;;;;;;;;5055535;28;20094;-80
2022/11/16 14:58:59;;;;;;;35.25;22.90;;;;;;;;;;5073896;28;20036;-80
2022/11/16 15:01:29;;;;;;;39.67;26.80;;;;;;;;;;5073174;28;20036;-80
2022/11/16 15:04:03;;;;;;;51.35;34.60;;;;;;;;;;5073915;28;20031;-82
2022/11/16 15:06:31;;;;;;;51.23;35.20;;;;;;;;;;5073699;28;20051;-82
2022/11/16 15:09:00;;;;;;;63.53;38.58;;;;;;;;;;5073748;28;20021;-80
2022/11/16 15:12:40;;;;;;;54.95;36.30;;;;;;;;;;5073286;28;20025;-80
2022/11/16 15:14:18;;;;;;;49.05;33.42;;;;;;;;;;5072622;28;20036;-82
2022/11/16 15:16:51;;;;;;;68.75;40.05;;;;;;;;;;5071437;28;20096;-80
2022/11/16 15:19:17;;;;;;;73.13;48.92;;;;;;;;;;5053146;28;20092;-80
2022/11/16 15:21:57;;;;;;;71.55;55.30;;;;;;;;;;5044666;28;20029;-80
2022/11/16 15:24:27;;;;;;;62.60;47.72;;;;;;;;;;5049271;28;20024;-80
2022/11/16 15:26:53;;;;;;;47.33;40.10;;;;;;;;;;5058210;28;20399;-81
2022/11/16 15:29:21;;;;;;;47.60;39.28;;;;;;;;;;5053233;28;20407;-81
2022/11/16 15:31:48;;;;;;;42.13;35.45;;;;;;;;;;5052949;28;20021;-82
2022/11/16 15:34:16;;;;;;;36.55;29.48;;;;;;;;;;5055046;28;20104;-80
2022/11/16 15:36:42;;;;;;;35.03;28.95;;;;;;;;;;5055261;28;20025;-80
2022/11/16 15:39:13;;;;;;;34.00;27.88;;;;;;;;;;5054759;28;20479;-80
2022/11/16 15:41:39;;;;;;;33.45;27.25;;;;;;;;;;5073187;28;20024;-80
2022/11/16 15:44:06;;;;;;;43.22;30.00;;;;;;;;;;5071836;28;20016;-82
2022/11/16 15:46:33;;;;;;;41.53;32.20;;;;;;;;;;5052820;28;20044;-80
2022/11/16 15:48:59;;;;;;;56.03;39.97;;;;;;;;;;5052732;28;20032;-79
2022/11/16 15:51:32;;;;;;;66.63;46.35;;;;;;;;;;5052958;28;20021;-80
2022/11/16 15:54:16;;;;;;;76.10;52.25;;;;;;;;;;5052696;28;20482;-79
2022/11/16 15:56:42;;;;;;;52.13;39.35;;;;;;;;;;5033271;28;20025;-81
2022/11/16 15:59:10;;;;;;;45.38;36.25;;;;;;;;;;5029919;28;20112;-81
2022/11/16 16:01:41;;;;;;;40.95;33.35;;;;;;;;;;5012770;28;20507;-79
2022/11/16 16:04:07;;;;;;;40.50;30.40;;;;;;;;;;5014187;28;20030;-80
2022/11/16 16:06:45;;;;;;;38.92;28.40;;;;;;;;;;5052629;28;20025;-79
2022/11/16 16:09:30;;;;;;;33.72;25.02;;;;;;;;;;5052042;28;20028;-80
2022/11/16 16:12:15;;;;;;;34.90;25.45;;;;;;;;;;5052692;28;20031;-81
2022/11/16 16:14:41;;;;;;;37.40;25.85;;;;;;;;;;5052236;28;20044;-80
2022/11/16 16:17:08;;;;;;;37.67;27.23;;;;;;;;;;5051602;28;20021;-79
2022/11/16 16:19:34;;;;;;;50.95;34.33;;;;;;;;;;5052267;28;20036;-81
2022/11/16 16:22:01;;;;;;;49.80;35.58;;;;;;;;;;5051962;28;20048;-80
2022/11/16 16:24:40;;;;;;;43.03;29.85;;;;;;;;;;5051869;28;20825;-81
2022/11/16 16:27:25;;;;;;;39.03;29.75;;;;;;;;;;5052405;28;20044;-81
2022/11/16 16:29:52;;;;;;;40.03;29.35;;;;;;;;;;5052019;28;20029;-79
2022/11/16 16:32:29;;;;;;;44.40;30.23;;;;;;;;;;5051978;28;20550;-81
2022/11/16 16:34:56;;;;;;;67.30;43.63;;;;;;;;;;5052044;28;20040;-78
2022/11/16 16:37:22;;;;;;;97.13;67.05;;;;;;;;;;5051917;28;20020;-81
2022/11/16 16:39:49;;;;;;;97.30;63.05;;;;;;;;;;5034274;28;20132;-79
2022/11/16 16:42:18;;;;;;;76.05;52.47;;;;;;;;;;5052177;28;20430;-79
2022/11/16 16:44:47;;;;;;;68.00;46.95;;;;;;;;;;5051616;28;20494;-80
2022/11/16 16:47:13;;;;;;;58.17;37.65;;;;;;;;;;5033828;28;20027;-79
2022/11/16 16:49:39;;;;;;;46.78;32.83;;;;;;;;;;5033696;28;20487;-79
2022/11/16 16:52:06;;;;;;;69.72;42.28;;;;;;;;;;5043458;28;20052;-79
2022/11/16 16:54:32;;;;;;;65.18;43.92;;;;;;;;;;5039772;28;20022;-80
2022/11/16 16:57:00;;;;;;;86.65;63.38;;;;;;;;;;5036891;28;20021;-79
2022/11/16 16:59:26;;;;;;;49.92;38.17;;;;;;;;;;5052096;28;20048;-81
2022/11/16 17:01:53;;;;;;;55.08;39.25;;;;;;;;;;5055003;28;20053;-81
2022/11/16 17:04:22;;;;;;;53.50;38.25;;;;;;;;;;5056057;28;20100;-79
2022/11/16 17:06:50;;;;;;;57.65;40.65;;;;;;;;;;5055782;28;20039;-81
2022/11/16 17:09:16;;;;;;;60.42;44.35;;;;;;;;;;5056063;28;20090;-79
2022/11/16 17:11:42;;;;;;;77.38;61.47;;;;;;;;;;5037293;28;20029;-82
2022/11/16 17:14:08;;;;;;;93.72;78.82;;;;;;;;;;5056163;28;20025;-79
2022/11/16 17:16:35;;;;;;;102.32;80.88;;;;;;;;;;5055542;28;20091;-81
2022/11/16 17:19:01;;;;;;;114.65;96.75;;;;;;;;;;5056029;28;20032;-81
2022/11/16 17:21:28;;;;;;;131.38;110.72;;;;;;;;;;5055221;28;20054;-79